createdAt,value
2023-11-21T00:00:04.431Z,99111.00
2023-11-21T00:03:00.243Z,99110.00
2023-11-21T00:05:27.289Z,99114.00
2023-11-21T00:07:54.564Z,99112.25
2023-11-21T00:10:21.489Z,99117.00
2023-11-21T00:12:49.435Z,99113.28
2023-11-21T00:15:16.532Z,99106.78
2023-11-21T00:17:44.345Z,99114.56
2023-11-21T00:20:14.683Z,99107.28
2023-11-21T00:22:42.720Z,99109.78
2023-11-21T00:25:10.295Z,99105.06
2023-11-21T00:27:37.856Z,99109.56
2023-11-21T00:30:08.589Z,99114.81
2023-11-21T00:32:39.303Z,99101.03
2023-11-21T00:35:07.234Z,99108.03
2023-11-21T00:37:34.832Z,99104.00
2023-11-21T00:40:05.977Z,99093.78
2023-11-21T00:42:40.379Z,99093.78
2023-11-21T00:45:07.704Z,99096.81
2023-11-21T00:47:35.155Z,99097.56
2023-11-21T00:50:02.366Z,99091.06
2023-11-21T00:52:29.644Z,99088.63
2023-11-21T00:54:56.615Z,99092.59
2023-11-21T00:57:23.956Z,99093.34
2023-11-21T00:59:50.936Z,99093.34
2023-11-21T01:02:18.107Z,99094.56
2023-11-21T01:04:49.185Z,99096.31
2023-11-21T01:07:16.647Z,99093.78
2023-11-21T01:09:45.429Z,99091.28
2023-11-21T01:12:12.706Z,99093.25
2023-11-21T01:14:40.926Z,99090.50
2023-11-21T01:17:08.396Z,99091.09
2023-11-21T01:19:35.489Z,99089.84
2023-11-21T01:22:02.876Z,99082.84
2023-11-21T01:24:29.919Z,99074.91
2023-11-21T01:26:57.448Z,99077.66
2023-11-21T01:29:24.642Z,99080.91
2023-11-21T01:31:53.286Z,99077.16
2023-11-21T01:34:22.546Z,99067.72
2023-11-21T01:36:49.961Z,99063.94
2023-11-21T01:39:17.709Z,99073.16
2023-11-21T01:41:47.918Z,99066.41
2023-11-21T01:44:14.885Z,99068.41
2023-11-21T01:46:42.953Z,99071.16
2023-11-21T01:49:14.241Z,99074.91
2023-11-21T01:51:42.868Z,99068.63
2023-11-21T01:54:16.956Z,99073.34
2023-11-21T01:56:47.202Z,99077.03
2023-11-21T01:59:19.444Z,99073.44
2023-11-21T02:01:51.693Z,99081.41
2023-11-21T02:04:20.546Z,99073.38
2023-11-21T02:06:48.271Z,99075.09
2023-11-21T02:09:16.629Z,99071.31
2023-11-21T02:11:44.114Z,99068.53
2023-11-21T02:14:10.971Z,99062.50
2023-11-21T02:16:38.218Z,99060.28
2023-11-21T02:19:10.348Z,99061.75
2023-11-21T02:21:41.619Z,99055.28
2023-11-21T02:24:11.530Z,99064.06
2023-11-21T02:26:42.250Z,99070.31
2023-11-21T02:29:12.111Z,99060.31
2023-11-21T02:31:48.960Z,99055.56
2023-11-21T02:34:17.312Z,99050.06
2023-11-21T02:36:50.619Z,99056.13
2023-11-21T02:39:18.253Z,99050.56
2023-11-21T02:41:45.792Z,99053.13
2023-11-21T02:44:12.724Z,99051.16
2023-11-21T02:46:42.426Z,99051.00
2023-11-21T02:49:14.322Z,99053.03
2023-11-21T02:51:41.611Z,99051.31
2023-11-21T02:54:09.824Z,99063.13
2023-11-21T02:56:37.119Z,99068.41
2023-11-21T02:59:04.135Z,99060.72
2023-11-21T03:01:31.558Z,99060.75
2023-11-21T03:03:58.739Z,99060.75
2023-11-21T03:06:26.112Z,99053.53
2023-11-21T03:08:53.069Z,99056.78
2023-11-21T03:11:20.859Z,99052.31
2023-11-21T03:13:48.075Z,99054.34
2023-11-21T03:16:15.943Z,99043.28
2023-11-21T03:18:43.018Z,99042.75
2023-11-21T03:21:10.204Z,99039.00
2023-11-21T03:23:37.338Z,99041.72
2023-11-21T03:26:05.316Z,99046.19
2023-11-21T03:28:32.473Z,99046.44
2023-11-21T03:30:59.840Z,99046.16
2023-11-21T03:33:26.831Z,99051.88
2023-11-21T03:35:54.310Z,99047.84
2023-11-21T03:38:21.681Z,99042.53
2023-11-21T03:40:50.534Z,99052.00
2023-11-21T03:43:19.876Z,99044.50
2023-11-21T03:45:47.274Z,99045.53
2023-11-21T03:48:14.426Z,99042.00
2023-11-21T03:50:44.259Z,99039.66
2023-11-21T03:53:11.185Z,99044.16
2023-11-21T03:55:38.458Z,99042.63
2023-11-21T03:58:05.443Z,99039.88
2023-11-21T04:00:35.144Z,99049.56
2023-11-21T04:03:02.147Z,99044.84
2023-11-21T04:05:29.660Z,99050.56
2023-11-21T04:07:56.676Z,99045.53
2023-11-21T04:10:23.921Z,99059.00
2023-11-21T04:12:50.899Z,99059.53
2023-11-21T04:15:18.559Z,99061.47
2023-11-21T04:17:46.686Z,99062.75
2023-11-21T04:20:16.559Z,99058.72
2023-11-21T04:22:47.432Z,99053.00
2023-11-21T04:25:16.113Z,99053.31
2023-11-21T04:27:46.279Z,99051.38
2023-11-21T04:30:14.233Z,99050.91
2023-11-21T04:32:41.426Z,99050.50
2023-11-21T04:35:10.156Z,99044.03
2023-11-21T04:37:39.816Z,99042.28
2023-11-21T04:40:08.451Z,99040.31
2023-11-21T04:42:37.058Z,99045.09
2023-11-21T04:45:09.515Z,99034.03
2023-11-21T04:47:37.312Z,99032.75
2023-11-21T04:50:05.375Z,99034.81
2023-11-21T04:52:32.435Z,99029.28
2023-11-21T04:54:59.977Z,99035.81
2023-11-21T04:57:26.963Z,99037.09
2023-11-21T04:59:56.732Z,99036.16
2023-11-21T05:02:31.189Z,99041.16
2023-11-21T05:05:07.314Z,99039.19
2023-11-21T05:07:37.252Z,99037.38
2023-11-21T05:10:12.529Z,99039.06
2023-11-21T05:12:39.727Z,99045.56
2023-11-21T05:15:14.138Z,99052.81
2023-11-21T05:17:44.489Z,99046.78
2023-11-21T05:20:14.347Z,99046.78
2023-11-21T05:22:43.263Z,99041.03
2023-11-21T05:25:10.813Z,99055.78
2023-11-21T05:27:37.960Z,99058.28
2023-11-21T05:30:14.054Z,99058.75
2023-11-21T05:32:48.139Z,99062.50
2023-11-21T05:35:17.850Z,99064.78
2023-11-21T05:37:46.931Z,99073.06
2023-11-21T05:40:16.754Z,99080.78
2023-11-21T05:42:44.146Z,99079.28
2023-11-21T05:45:12.620Z,99081.56
2023-11-21T05:47:42.545Z,99076.09
2023-11-21T05:50:15.972Z,99068.59
2023-11-21T05:52:44.068Z,99079.09
2023-11-21T05:55:11.895Z,99085.31
2023-11-21T05:57:39.627Z,99081.03
2023-11-21T06:00:17.147Z,99090.22
2023-11-21T06:02:44.445Z,99100.03
2023-11-21T06:05:11.994Z,99099.53
2023-11-21T06:07:39.843Z,99102.56
2023-11-21T06:10:10.482Z,99107.06
2023-11-21T06:12:37.490Z,99105.56
2023-11-21T06:15:06.456Z,99107.81
2023-11-21T06:17:39.130Z,99112.53
2023-11-21T06:20:10.894Z,99117.50
2023-11-21T06:22:42.291Z,99111.94
2023-11-21T06:25:10.397Z,99115.66
2023-11-21T06:27:40.778Z,99119.13
2023-11-21T06:30:09.742Z,99120.06
2023-11-21T06:32:37.329Z,99123.28
2023-11-21T06:35:05.407Z,99132.78
2023-11-21T06:37:33.167Z,99133.25
2023-11-21T06:40:01.023Z,99134.69
2023-11-21T06:42:28.783Z,99149.94
2023-11-21T06:44:58.388Z,99145.88
2023-11-21T06:47:31.007Z,99155.34
2023-11-21T06:49:59.093Z,99157.56
2023-11-21T06:52:28.976Z,99154.75
2023-11-21T06:54:56.352Z,99160.22
2023-11-21T06:57:26.420Z,99152.41
2023-11-21T06:59:53.820Z,99149.31
2023-11-21T07:02:20.972Z,99161.06
2023-11-21T07:04:51.438Z,99156.97
2023-11-21T07:07:19.341Z,99162.69
2023-11-21T07:09:50.215Z,99163.88
2023-11-21T07:12:24.916Z,99163.84
2023-11-21T07:14:52.692Z,99168.78
2023-11-21T07:17:20.213Z,99167.72
2023-11-21T07:19:47.593Z,99170.22
2023-11-21T07:22:15.336Z,99167.16
2023-11-21T07:24:45.130Z,99172.91
2023-11-21T07:27:12.093Z,99179.56
2023-11-21T07:29:41.056Z,99178.03
2023-11-21T07:32:10.621Z,99186.44
2023-11-21T07:34:38.032Z,99186.41
2023-11-21T07:37:05.204Z,99179.78
2023-11-21T07:39:32.377Z,99178.78
2023-11-21T07:42:01.987Z,99181.69
2023-11-21T07:44:29.653Z,99196.63
2023-11-21T07:46:59.767Z,99197.22
2023-11-21T07:49:28.007Z,99188.06
2023-11-21T07:51:55.204Z,99189.09
2023-11-21T07:54:22.711Z,99185.50
2023-11-21T07:56:49.813Z,99183.78
2023-11-21T07:59:18.364Z,99194.16
2023-11-21T08:01:46.818Z,99190.44
2023-11-21T08:04:14.231Z,99195.88
2023-11-21T08:06:43.111Z,99190.56
2023-11-21T08:09:11.138Z,99198.13
2023-11-21T08:11:40.051Z,99187.69
2023-11-21T08:14:07.566Z,99194.09
2023-11-21T08:16:34.864Z,99197.97
2023-11-21T08:19:02.249Z,99197.53
2023-11-21T08:21:30.526Z,99203.94
2023-11-21T08:23:58.049Z,99196.03
2023-11-21T08:26:25.013Z,99202.00
2023-11-21T08:28:53.980Z,99206.28
2023-11-21T08:31:27.545Z,99206.72
2023-11-21T08:33:57.522Z,99211.13
2023-11-21T08:36:29.622Z,99214.88
2023-11-21T08:38:56.668Z,99213.09
2023-11-21T08:41:24.059Z,99212.88
2023-11-21T08:43:52.085Z,99216.50
2023-11-21T08:46:19.993Z,99213.41
2023-11-21T08:48:47.414Z,99216.00
2023-11-21T08:51:15.444Z,99209.13
2023-11-21T08:53:42.582Z,99217.25
2023-11-21T08:56:13.507Z,99218.59
2023-11-21T08:58:40.628Z,99220.28
2023-11-21T09:01:08.638Z,99221.09
2023-11-21T09:03:36.073Z,99219.63
2023-11-21T09:06:04.924Z,99222.84
2023-11-21T09:08:32.115Z,99211.44
2023-11-21T09:10:59.428Z,99221.63
2023-11-21T09:13:26.565Z,99213.56
2023-11-21T09:15:53.956Z,99211.53
2023-11-21T09:18:20.977Z,99206.19
2023-11-21T09:20:48.362Z,99207.78
2023-11-21T09:23:15.512Z,99201.25
2023-11-21T09:25:42.976Z,99196.97
2023-11-21T09:28:09.955Z,99193.94
2023-11-21T09:30:37.381Z,99195.75
2023-11-21T09:33:06.707Z,99198.94
2023-11-21T09:35:34.131Z,99188.31
2023-11-21T09:38:02.973Z,99189.41
2023-11-21T09:40:32.952Z,99195.91
2023-11-21T09:43:00.997Z,99193.28
2023-11-21T09:45:30.082Z,99191.19
2023-11-21T09:47:57.802Z,99195.56
2023-11-21T09:50:29.687Z,99192.78
2023-11-21T09:52:59.471Z,99202.34
2023-11-21T09:55:30.902Z,99194.88
2023-11-21T09:57:58.329Z,99192.47
2023-11-21T10:00:33.131Z,99189.94
2023-11-21T10:03:03.142Z,99197.41
2023-11-21T10:05:30.832Z,99193.34
2023-11-21T10:08:00.660Z,99186.72
2023-11-21T10:10:33.342Z,99180.69
2023-11-21T10:13:04.996Z,99183.25
2023-11-21T10:15:32.470Z,99181.19
2023-11-21T10:17:59.765Z,99182.47
2023-11-21T10:20:26.982Z,99174.66
2023-11-21T10:22:53.946Z,99177.50
2023-11-21T10:25:21.842Z,99175.16
2023-11-21T10:27:51.703Z,99173.47
2023-11-21T10:30:19.339Z,99176.16
2023-11-21T10:32:49.355Z,99175.69
2023-11-21T10:35:19.338Z,99182.81
2023-11-21T10:38:00.733Z,99186.72
2023-11-21T10:40:30.355Z,99178.69
2023-11-21T10:43:07.056Z,99187.88
2023-11-21T10:45:35.178Z,99189.09
2023-11-21T10:48:02.190Z,99201.88
2023-11-21T10:50:31.747Z,99193.88
2023-11-21T10:52:58.705Z,99199.97
2023-11-21T10:55:27.941Z,99194.56
2023-11-21T10:57:56.729Z,99194.22
2023-11-21T11:00:28.327Z,99184.03
2023-11-21T11:02:56.627Z,99187.50
2023-11-21T11:05:25.141Z,99181.84
2023-11-21T11:07:56.007Z,99179.19
2023-11-21T11:10:27.310Z,99182.94
2023-11-21T11:12:54.976Z,99175.41
2023-11-21T11:15:24.765Z,99176.09
2023-11-21T11:17:51.860Z,99182.19
2023-11-21T11:20:20.886Z,99185.16
2023-11-21T11:22:53.850Z,99174.44
2023-11-21T11:25:26.973Z,99176.00
2023-11-21T11:28:15.102Z,99171.81
2023-11-21T11:30:56.718Z,99171.59
2023-11-21T11:33:35.327Z,99160.84
2023-11-21T11:36:13.006Z,99165.97
2023-11-21T11:38:40.085Z,99152.66
2023-11-21T11:41:10.590Z,99164.50
2023-11-21T11:43:46.814Z,99152.06
2023-11-21T11:46:14.616Z,99168.63
2023-11-21T11:48:41.922Z,99163.09
2023-11-21T11:51:15.485Z,99164.31
2023-11-21T11:53:43.356Z,99162.97
2023-11-21T11:56:24.202Z,99158.97
2023-11-21T11:58:54.427Z,99166.88
2023-11-21T12:01:22.174Z,99155.19
2023-11-21T12:04:09.542Z,99162.09
2023-11-21T12:06:41.301Z,99167.00
2023-11-21T12:09:08.768Z,99164.56
2023-11-21T12:11:38.005Z,99171.47
2023-11-21T12:14:06.791Z,99174.13
2023-11-21T12:16:34.254Z,99169.06
2023-11-21T12:19:03.533Z,99176.22
2023-11-21T12:21:31.381Z,99174.84
2023-11-21T12:24:01.346Z,99170.31
2023-11-21T12:26:30.957Z,99167.88
2023-11-21T12:28:57.989Z,99170.59
2023-11-21T12:31:26.979Z,99160.41
2023-11-21T12:33:57.322Z,99160.78
2023-11-21T12:36:26.619Z,99168.31
2023-11-21T12:38:53.621Z,99158.75
2023-11-21T12:41:22.394Z,99159.84
2023-11-21T12:43:49.432Z,99157.53
2023-11-21T12:46:18.491Z,99163.56
2023-11-21T12:48:46.825Z,99155.22
2023-11-21T12:51:17.256Z,99158.13
2023-11-21T12:53:44.409Z,99160.56
2023-11-21T12:56:14.267Z,99162.88
2023-11-21T12:58:46.183Z,99162.59
2023-11-21T13:01:19.261Z,99165.75
2023-11-21T13:03:49.903Z,99166.06
2023-11-21T13:06:18.135Z,99170.25
2023-11-21T13:08:47.606Z,99163.13
2023-11-21T13:11:15.893Z,99165.25
2023-11-21T13:13:46.749Z,99157.47
2023-11-21T13:16:16.710Z,99161.88
2023-11-21T13:18:44.559Z,99160.16
2023-11-21T13:21:14.909Z,99158.81
2023-11-21T13:23:43.329Z,99152.44
2023-11-21T13:26:11.350Z,99150.88
2023-11-21T13:28:39.191Z,99156.97
2023-11-21T13:31:27.320Z,99154.88
2023-11-21T13:33:57.990Z,99155.75
2023-11-21T13:36:26.643Z,99169.06
2023-11-21T13:38:55.114Z,99168.63
2023-11-21T13:41:29.558Z,99158.19
2023-11-21T13:44:15.697Z,99160.19
2023-11-21T13:46:44.017Z,99164.16
2023-11-21T13:49:11.682Z,99168.94
2023-11-21T13:51:46.151Z,99162.78
2023-11-21T13:54:13.694Z,99172.59
2023-11-21T13:56:42.619Z,99173.66
2023-11-21T13:59:24.815Z,99175.34
2023-11-21T14:02:13.480Z,99180.88
2023-11-21T14:04:55.637Z,99179.72
2023-11-21T14:07:47.379Z,99183.97
2023-11-21T14:10:15.776Z,99178.84
2023-11-21T14:12:44.085Z,99177.22
2023-11-21T14:15:18.366Z,99181.38
2023-11-21T14:17:46.257Z,99169.53
2023-11-21T14:20:17.871Z,99171.53
2023-11-21T14:22:46.003Z,99184.25
2023-11-21T14:25:16.090Z,99181.78
2023-11-21T14:27:46.057Z,99172.84
2023-11-21T14:30:14.832Z,99180.91
2023-11-21T14:32:43.480Z,99184.28
2023-11-21T14:35:10.737Z,99187.28
2023-11-21T14:37:38.236Z,99191.53
2023-11-21T14:40:05.927Z,99191.53
2023-11-21T14:42:34.984Z,99190.34
2023-11-21T14:45:05.457Z,99194.88
2023-11-21T14:47:35.625Z,99200.19
2023-11-21T14:50:21.833Z,99207.53
2023-11-21T14:53:00.068Z,99204.25
2023-11-21T14:55:33.231Z,99204.69
2023-11-21T14:58:05.415Z,99202.00
2023-11-21T15:00:52.981Z,99207.31
2023-11-21T15:03:32.647Z,99205.66
2023-11-21T15:06:02.178Z,99211.09
2023-11-21T15:08:33.322Z,99214.56
2023-11-21T15:11:08.375Z,99202.59
2023-11-21T15:13:35.801Z,99214.75
2023-11-21T15:16:09.121Z,99218.56
2023-11-21T15:18:36.781Z,99213.38
2023-11-21T15:21:06.785Z,99210.19
2023-11-21T15:23:36.273Z,99212.81
2023-11-21T15:26:06.194Z,99213.19
2023-11-21T15:28:34.514Z,99208.03
2023-11-21T15:31:02.287Z,99206.81
2023-11-21T15:33:29.731Z,99205.34
2023-11-21T15:35:56.770Z,99209.91
2023-11-21T15:38:25.135Z,99210.72
2023-11-21T15:40:52.120Z,99214.03
2023-11-21T15:43:22.407Z,99205.81
2023-11-21T15:45:52.149Z,99210.81
2023-11-21T15:48:19.515Z,99212.56
2023-11-21T15:50:48.018Z,99199.06
2023-11-21T15:53:17.577Z,99207.03
2023-11-21T15:55:44.583Z,99209.53
2023-11-21T15:58:11.934Z,99205.69
2023-11-21T16:00:42.782Z,99219.41
2023-11-21T16:03:13.262Z,99215.38
2023-11-21T16:05:41.040Z,99226.38
2023-11-21T16:08:08.131Z,99229.56
2023-11-21T16:10:37.487Z,99230.50
2023-11-21T16:13:04.695Z,99240.75
2023-11-21T16:15:32.191Z,99240.97
2023-11-21T16:17:59.226Z,99242.47
2023-11-21T16:20:27.234Z,99240.63
2023-11-21T16:22:55.298Z,99240.13
2023-11-21T16:25:22.637Z,99248.63
2023-11-21T16:27:49.783Z,99257.59
2023-11-21T16:30:17.247Z,99255.56
2023-11-21T16:32:44.251Z,99254.06
2023-11-21T16:35:13.291Z,99251.53
2023-11-21T16:37:40.595Z,99255.56
2023-11-21T16:40:10.232Z,99257.88
2023-11-21T16:42:39.624Z,99259.66
2023-11-21T16:45:09.695Z,99269.19
2023-11-21T16:47:37.362Z,99262.19
2023-11-21T16:50:05.330Z,99277.78
2023-11-21T16:52:32.578Z,99284.09
2023-11-21T16:54:59.926Z,99278.34
2023-11-21T16:57:29.852Z,99283.63
2023-11-21T16:59:57.140Z,99285.41
2023-11-21T17:02:24.391Z,99291.47
2023-11-21T17:04:51.947Z,99287.22
2023-11-21T17:07:21.949Z,99296.75
2023-11-21T17:09:51.994Z,99299.25
2023-11-21T17:12:19.265Z,99301.78
2023-11-21T17:14:49.631Z,99300.28
2023-11-21T17:17:17.303Z,99298.25
2023-11-21T17:19:45.547Z,99304.78
2023-11-21T17:22:12.860Z,99302.53
2023-11-21T17:24:40.185Z,99300.75
2023-11-21T17:27:08.041Z,99300.25
2023-11-21T17:29:36.414Z,99307.25
2023-11-21T17:32:06.154Z,99308.00
2023-11-21T17:34:36.597Z,99306.72
2023-11-21T17:37:04.069Z,99305.25
2023-11-21T17:39:31.558Z,99315.28
2023-11-21T17:41:58.929Z,99311.06
2023-11-21T17:44:28.841Z,99316.06
2023-11-21T17:46:55.960Z,99301.97
2023-11-21T17:49:23.558Z,99303.75
2023-11-21T17:51:50.961Z,99303.97
2023-11-21T17:54:19.050Z,99315.25
2023-11-21T17:56:47.327Z,99313.47
2023-11-21T17:59:17.502Z,99324.53
2023-11-21T18:01:45.080Z,99325.53
2023-11-21T18:04:12.875Z,99324.31
2023-11-21T18:06:40.201Z,99332.09
2023-11-21T18:09:10.161Z,99329.34
2023-11-21T18:11:37.375Z,99329.59
2023-11-21T18:14:11.106Z,99332.13
2023-11-21T18:16:39.403Z,99330.66
2023-11-21T18:19:06.868Z,99327.66
2023-11-21T18:21:37.158Z,99327.44
2023-11-21T18:24:08.006Z,99327.69
2023-11-21T18:26:35.286Z,99331.22
2023-11-21T18:29:02.640Z,99344.22
2023-11-21T18:31:32.679Z,99340.97
2023-11-21T18:34:00.625Z,99350.25
2023-11-21T18:36:27.683Z,99346.69
2023-11-21T18:38:57.335Z,99349.69
2023-11-21T18:41:25.229Z,99352.69
2023-11-21T18:43:55.708Z,99349.97
2023-11-21T18:46:26.914Z,99348.69
2023-11-21T18:48:54.822Z,99349.97
2023-11-21T18:51:22.292Z,99348.44
2023-11-21T18:53:50.644Z,99350.25
2023-11-21T18:56:23.139Z,99350.53
2023-11-21T18:58:54.715Z,99355.31
2023-11-21T19:01:41.802Z,99359.34
2023-11-21T19:04:09.680Z,99361.91
2023-11-21T19:06:38.932Z,99361.19
2023-11-21T19:09:13.344Z,99361.69
2023-11-21T19:11:40.901Z,99367.78
2023-11-21T19:14:10.905Z,99365.78
2023-11-21T19:16:39.622Z,99358.06
2023-11-21T19:19:09.984Z,99363.88
2023-11-21T19:21:37.290Z,99369.44
2023-11-21T19:24:04.829Z,99364.50
2023-11-21T19:26:33.360Z,99367.28
2023-11-21T19:29:01.101Z,99368.03
2023-11-21T19:31:28.758Z,99370.56
2023-11-21T19:33:56.784Z,99371.56
2023-11-21T19:36:24.305Z,99372.59
2023-11-21T19:38:52.711Z,99368.09
2023-11-21T19:41:22.383Z,99384.09
2023-11-21T19:43:51.319Z,99374.09
2023-11-21T19:46:18.926Z,99382.63
2023-11-21T19:48:47.666Z,99387.41
2023-11-21T19:51:17.415Z,99386.41
2023-11-21T19:53:44.750Z,99392.69
2023-11-21T19:56:11.814Z,99396.47
2023-11-21T19:58:40.822Z,99395.75
2023-11-21T20:01:11.477Z,99398.25
2023-11-21T20:03:40.534Z,99394.75
2023-11-21T20:06:08.491Z,99403.78
2023-11-21T20:08:36.508Z,99409.75
2023-11-21T20:11:04.420Z,99421.50
2023-11-21T20:13:32.979Z,99418.50
2023-11-21T20:16:01.261Z,99422.19
2023-11-21T20:18:31.977Z,99427.94
2023-11-21T20:20:59.901Z,99415.19
2023-11-21T20:23:33.311Z,99426.72
2023-11-21T20:26:01.862Z,99426.00
2023-11-21T20:28:30.894Z,99418.47
2023-11-21T20:31:03.236Z,99418.22
2023-11-21T20:33:31.218Z,99422.22
2023-11-21T20:36:02.961Z,99420.69
2023-11-21T20:38:30.224Z,99428.19
2023-11-21T20:40:58.084Z,99430.69
2023-11-21T20:43:26.146Z,99436.19
2023-11-21T20:45:53.707Z,99438.19
2023-11-21T20:48:21.225Z,99428.44
2023-11-21T20:50:48.418Z,99435.19
2023-11-21T20:53:16.297Z,99440.69
2023-11-21T20:55:44.000Z,99440.41
2023-11-21T20:58:11.848Z,99438.94
2023-11-21T21:00:39.001Z,99442.41
2023-11-21T21:03:08.471Z,99442.91
2023-11-21T21:05:38.979Z,99446.88
2023-11-21T21:08:07.722Z,99444.16
2023-11-21T21:10:35.238Z,99446.88
2023-11-21T21:13:03.151Z,99452.88
2023-11-21T21:15:30.319Z,99454.63
2023-11-21T21:17:58.736Z,99452.09
2023-11-21T21:20:25.886Z,99459.16
2023-11-21T21:22:54.439Z,99456.63
2023-11-21T21:25:21.576Z,99465.13
2023-11-21T21:27:49.658Z,99470.13
2023-11-21T21:30:16.762Z,99476.44
2023-11-21T21:32:44.103Z,99470.47
2023-11-21T21:35:13.081Z,99464.28
2023-11-21T21:37:42.629Z,99475.03
2023-11-21T21:40:10.368Z,99472.53
2023-11-21T21:42:37.673Z,99477.56
2023-11-21T21:45:05.108Z,99480.81
2023-11-21T21:47:34.877Z,99481.84
2023-11-21T21:50:01.896Z,99481.06
2023-11-21T21:52:38.981Z,99482.56
2023-11-21T21:55:07.050Z,99495.34
2023-11-21T21:57:34.371Z,99490.81
2023-11-21T22:00:08.117Z,99494.84
2023-11-21T22:02:39.897Z,99506.59
2023-11-21T22:05:10.103Z,99509.34
2023-11-21T22:07:40.625Z,99511.84
2023-11-21T22:10:09.323Z,99512.34
2023-11-21T22:12:36.975Z,99510.63
2023-11-21T22:15:05.951Z,99509.59
2023-11-21T22:17:33.332Z,99513.63
2023-11-21T22:20:00.728Z,99521.59
2023-11-21T22:22:31.139Z,99528.13
2023-11-21T22:24:58.085Z,99525.88
2023-11-21T22:27:25.423Z,99523.13
2023-11-21T22:29:52.465Z,99521.34
2023-11-21T22:32:19.732Z,99518.34
2023-11-21T22:34:46.921Z,99528.13
2023-11-21T22:37:14.188Z,99526.63
2023-11-21T22:39:42.415Z,99522.88
2023-11-21T22:42:09.732Z,99522.63
2023-11-21T22:44:36.642Z,99522.84
2023-11-21T22:47:05.529Z,99521.84
2023-11-21T22:49:32.797Z,99531.63
2023-11-21T22:52:00.578Z,99521.34
2023-11-21T22:54:28.336Z,99524.84
2023-11-21T22:56:55.594Z,99530.09
2023-11-21T22:59:22.730Z,99527.84
2023-11-21T23:01:51.674Z,99521.09
2023-11-21T23:04:21.939Z,99513.81
2023-11-21T23:06:49.389Z,99513.56
2023-11-21T23:09:20.664Z,99516.31
2023-11-21T23:11:47.960Z,99517.56
2023-11-21T23:14:15.217Z,99514.81
2023-11-21T23:16:43.224Z,99521.81
2023-11-21T23:19:18.009Z,99528.59
2023-11-21T23:21:45.621Z,99538.09
2023-11-21T23:24:14.393Z,99535.09
2023-11-21T23:26:43.862Z,99533.09
2023-11-21T23:29:11.067Z,99526.84
2023-11-21T23:31:38.292Z,99531.09
2023-11-21T23:34:05.889Z,99526.56
2023-11-21T23:36:33.312Z,99528.84
2023-11-21T23:39:00.217Z,99534.38
2023-11-21T23:41:27.474Z,99532.09
2023-11-21T23:43:54.460Z,99534.56
2023-11-21T23:46:21.811Z,99535.59
2023-11-21T23:48:48.836Z,99541.34
2023-11-21T23:51:18.550Z,99533.34
2023-11-21T23:53:47.902Z,99540.06
2023-11-21T23:56:15.909Z,99530.06
2023-11-21T23:58:42.794Z,99547.34
